sensor_id;sensor_type;location;lat;lon;timestamp;P1;durP1;ratioP1;P2;durP2;ratioP2
22967;SDS011;11650;48.106;-1.696;2023-03-09T00:01:43;35.77;;;4.80;;
22967;SDS011;11650;48.106;-1.696;2023-03-09T00:04:11;36.83;;;5.43;;
22967;SDS011;11650;48.106;-1.696;2023-03-09T00:06:39;22.37;;;3.70;;
22967;SDS011;11650;48.106;-1.696;2023-03-09T00:09:05;35.63;;;4.50;;
22967;SDS011;11650;48.106;-1.696;2023-03-09T00:11:30;28.93;;;4.83;;
22967;SDS011;11650;48.106;-1.696;2023-03-09T00:13:56;35.27;;;5.47;;
22967;SDS011;11650;48.106;-1.696;2023-03-09T00:16:25;41.53;;;5.40;;
22967;SDS011;11650;48.106;-1.696;2023-03-09T00:18:53;29.87;;;4.67;;
22967;SDS011;11650;48.106;-1.696;2023-03-09T00:21:22;39.47;;;6.20;;
22967;SDS011;11650;48.106;-1.696;2023-03-09T00:26:32;36.33;;;5.33;;
22967;SDS011;11650;48.106;-1.696;2023-03-09T00:29:01;35.70;;;5.07;;
22967;SDS011;11650;48.106;-1.696;2023-03-09T00:31:28;37.47;;;6.13;;
22967;SDS011;11650;48.106;-1.696;2023-03-09T00:33:54;35.23;;;5.17;;
22967;SDS011;11650;48.106;-1.696;2023-03-09T00:36:19;38.10;;;5.90;;
22967;SDS011;11650;48.106;-1.696;2023-03-09T00:38:49;37.93;;;5.30;;
22967;SDS011;11650;48.106;-1.696;2023-03-09T00:41:16;37.67;;;5.57;;
22967;SDS011;11650;48.106;-1.696;2023-03-09T00:43:42;33.73;;;4.47;;
22967;SDS011;11650;48.106;-1.696;2023-03-09T00:46:08;45.10;;;5.77;;
22967;SDS011;11650;48.106;-1.696;2023-03-09T00:48:35;41.37;;;5.83;;
22967;SDS011;11650;48.106;-1.696;2023-03-09T00:51:01;33.57;;;4.87;;
22967;SDS011;11650;48.106;-1.696;2023-03-09T00:53:27;47.87;;;7.17;;
22967;SDS011;11650;48.106;-1.696;2023-03-09T00:55:53;44.03;;;5.90;;
22967;SDS011;11650;48.106;-1.696;2023-03-09T00:58:18;43.77;;;6.17;;
22967;SDS011;11650;48.106;-1.696;2023-03-09T01:00:44;30.90;;;5.50;;
22967;SDS011;11650;48.106;-1.696;2023-03-09T01:03:10;33.90;;;6.17;;
22967;SDS011;11650;48.106;-1.696;2023-03-09T01:05:36;42.80;;;5.77;;
22967;SDS011;11650;48.106;-1.696;2023-03-09T01:08:02;44.77;;;5.83;;
22967;SDS011;11650;48.106;-1.696;2023-03-09T01:10:28;38.73;;;5.80;;
22967;SDS011;11650;48.106;-1.696;2023-03-09T01:12:54;46.43;;;6.00;;
22967;SDS011;11650;48.106;-1.696;2023-03-09T01:15:20;29.00;;;5.50;;
22967;SDS011;11650;48.106;-1.696;2023-03-09T01:17:46;42.00;;;6.13;;
22967;SDS011;11650;48.106;-1.696;2023-03-09T01:20:15;44.63;;;6.47;;
22967;SDS011;11650;48.106;-1.696;2023-03-09T01:22:40;34.97;;;5.10;;
22967;SDS011;11650;48.106;-1.696;2023-03-09T01:25:06;36.37;;;5.20;;
22967;SDS011;11650;48.106;-1.696;2023-03-09T01:27:32;37.93;;;5.47;;
22967;SDS011;11650;48.106;-1.696;2023-03-09T01:29:58;42.97;;;6.30;;
22967;SDS011;11650;48.106;-1.696;2023-03-09T01:32:24;34.00;;;5.47;;
22967;SDS011;11650;48.106;-1.696;2023-03-09T01:34:51;46.57;;;5.70;;
22967;SDS011;11650;48.106;-1.696;2023-03-09T01:37:17;36.53;;;5.40;;
22967;SDS011;11650;48.106;-1.696;2023-03-09T01:39:43;31.33;;;5.20;;
22967;SDS011;11650;48.106;-1.696;2023-03-09T01:42:09;42.27;;;6.63;;
22967;SDS011;11650;48.106;-1.696;2023-03-09T01:44:35;39.30;;;5.07;;
22967;SDS011;11650;48.106;-1.696;2023-03-09T01:47:01;39.77;;;6.17;;
22967;SDS011;11650;48.106;-1.696;2023-03-09T01:55:09;37.00;;;5.33;;
22967;SDS011;11650;48.106;-1.696;2023-03-09T01:57:37;49.43;;;5.53;;
22967;SDS011;11650;48.106;-1.696;2023-03-09T02:00:11;35.27;;;6.23;;
22967;SDS011;11650;48.106;-1.696;2023-03-09T02:02:40;29.10;;;4.57;;
22967;SDS011;11650;48.106;-1.696;2023-03-09T02:05:13;40.07;;;5.90;;
22967;SDS011;11650;48.106;-1.696;2023-03-09T02:07:42;41.00;;;7.77;;
22967;SDS011;11650;48.106;-1.696;2023-03-09T02:12:43;33.30;;;5.87;;
22967;SDS011;11650;48.106;-1.696;2023-03-09T02:15:17;36.97;;;5.80;;
22967;SDS011;11650;48.106;-1.696;2023-03-09T02:17:44;36.63;;;5.37;;
22967;SDS011;11650;48.106;-1.696;2023-03-09T02:22:46;43.70;;;5.87;;
22967;SDS011;11650;48.106;-1.696;2023-03-09T02:27:53;33.50;;;6.13;;
22967;SDS011;11650;48.106;-1.696;2023-03-09T02:30:20;38.23;;;5.57;;
22967;SDS011;11650;48.106;-1.696;2023-03-09T02:32:50;30.83;;;4.63;;
22967;SDS011;11650;48.106;-1.696;2023-03-09T02:35:16;39.90;;;6.33;;
22967;SDS011;11650;48.106;-1.696;2023-03-09T02:37:41;41.83;;;7.00;;
22967;SDS011;11650;48.106;-1.696;2023-03-09T02:42:43;41.57;;;6.73;;
22967;SDS011;11650;48.106;-1.696;2023-03-09T02:45:10;47.13;;;6.80;;
22967;SDS011;11650;48.106;-1.696;2023-03-09T02:47:39;48.17;;;6.57;;
22967;SDS011;11650;48.106;-1.696;2023-03-09T02:50:06;42.13;;;6.50;;
22967;SDS011;11650;48.106;-1.696;2023-03-09T02:52:34;46.33;;;6.43;;
22967;SDS011;11650;48.106;-1.696;2023-03-09T02:55:00;62.43;;;7.67;;
22967;SDS011;11650;48.106;-1.696;2023-03-09T02:57:26;46.60;;;7.27;;
22967;SDS011;11650;48.106;-1.696;2023-03-09T02:59:51;44.20;;;7.13;;
22967;SDS011;11650;48.106;-1.696;2023-03-09T03:02:17;38.37;;;6.27;;
22967;SDS011;11650;48.106;-1.696;2023-03-09T03:04:43;43.03;;;6.60;;
22967;SDS011;11650;48.106;-1.696;2023-03-09T03:07:09;46.67;;;6.77;;
22967;SDS011;11650;48.106;-1.696;2023-03-09T03:09:34;60.33;;;7.70;;
22967;SDS011;11650;48.106;-1.696;2023-03-09T03:12:00;53.50;;;6.63;;
22967;SDS011;11650;48.106;-1.696;2023-03-09T03:14:26;49.97;;;7.83;;
22967;SDS011;11650;48.106;-1.696;2023-03-09T03:16:52;55.77;;;8.03;;
22967;SDS011;11650;48.106;-1.696;2023-03-09T03:19:18;40.80;;;6.77;;
22967;SDS011;11650;48.106;-1.696;2023-03-09T03:21:44;50.03;;;7.87;;
22967;SDS011;11650;48.106;-1.696;2023-03-09T03:24:10;47.23;;;7.37;;
22967;SDS011;11650;48.106;-1.696;2023-03-09T03:26:36;51.80;;;7.53;;
22967;SDS011;11650;48.106;-1.696;2023-03-09T03:29:01;53.03;;;7.13;;
22967;SDS011;11650;48.106;-1.696;2023-03-09T03:31:27;50.27;;;7.07;;
22967;SDS011;11650;48.106;-1.696;2023-03-09T03:33:53;44.97;;;7.00;;
22967;SDS011;11650;48.106;-1.696;2023-03-09T03:36:19;53.87;;;8.07;;
22967;SDS011;11650;48.106;-1.696;2023-03-09T03:38:44;59.13;;;7.53;;
22967;SDS011;11650;48.106;-1.696;2023-03-09T03:41:10;50.83;;;6.80;;
22967;SDS011;11650;48.106;-1.696;2023-03-09T03:43:36;50.67;;;6.80;;
22967;SDS011;11650;48.106;-1.696;2023-03-09T03:46:01;43.87;;;6.73;;
22967;SDS011;11650;48.106;-1.696;2023-03-09T03:48:27;50.87;;;6.63;;
22967;SDS011;11650;48.106;-1.696;2023-03-09T03:50:53;41.63;;;6.33;;
22967;SDS011;11650;48.106;-1.696;2023-03-09T03:53:18;54.50;;;7.23;;
22967;SDS011;11650;48.106;-1.696;2023-03-09T03:55:44;47.37;;;6.93;;
22967;SDS011;11650;48.106;-1.696;2023-03-09T03:58:09;54.87;;;7.13;;
22967;SDS011;11650;48.106;-1.696;2023-03-09T04:00:35;38.27;;;6.80;;
22967;SDS011;11650;48.106;-1.696;2023-03-09T04:03:01;59.90;;;7.40;;
22967;SDS011;11650;48.106;-1.696;2023-03-09T04:05:26;50.93;;;7.97;;
22967;SDS011;11650;48.106;-1.696;2023-03-09T04:07:52;64.60;;;9.67;;
22967;SDS011;11650;48.106;-1.696;2023-03-09T04:10:18;61.47;;;8.37;;
22967;SDS011;11650;48.106;-1.696;2023-03-09T04:12:43;42.50;;;6.43;;
22967;SDS011;11650;48.106;-1.696;2023-03-09T04:15:09;46.53;;;6.97;;
22967;SDS011;11650;48.106;-1.696;2023-03-09T04:17:35;48.83;;;7.13;;
22967;SDS011;11650;48.106;-1.696;2023-03-09T04:20:01;47.53;;;7.23;;
22967;SDS011;11650;48.106;-1.696;2023-03-09T04:22:27;51.40;;;7.23;;
22967;SDS011;11650;48.106;-1.696;2023-03-09T04:24:53;50.77;;;7.23;;
22967;SDS011;11650;48.106;-1.696;2023-03-09T04:27:18;62.20;;;7.60;;
22967;SDS011;11650;48.106;-1.696;2023-03-09T04:29:44;49.13;;;6.83;;
22967;SDS011;11650;48.106;-1.696;2023-03-09T04:32:10;55.23;;;7.50;;
22967;SDS011;11650;48.106;-1.696;2023-03-09T04:34:35;43.77;;;7.07;;
22967;SDS011;11650;48.106;-1.696;2023-03-09T04:37:01;54.30;;;8.10;;
22967;SDS011;11650;48.106;-1.696;2023-03-09T04:39:27;58.73;;;8.70;;
22967;SDS011;11650;48.106;-1.696;2023-03-09T04:41:52;62.60;;;8.37;;
22967;SDS011;11650;48.106;-1.696;2023-03-09T04:44:19;61.07;;;8.30;;
22967;SDS011;11650;48.106;-1.696;2023-03-09T04:46:45;51.40;;;8.27;;
22967;SDS011;11650;48.106;-1.696;2023-03-09T04:49:11;60.43;;;8.87;;
22967;SDS011;11650;48.106;-1.696;2023-03-09T04:51:37;66.40;;;8.50;;
22967;SDS011;11650;48.106;-1.696;2023-03-09T04:54:02;57.77;;;8.63;;
22967;SDS011;11650;48.106;-1.696;2023-03-09T04:56:28;74.30;;;9.87;;
22967;SDS011;11650;48.106;-1.696;2023-03-09T04:58:53;61.63;;;9.13;;
22967;SDS011;11650;48.106;-1.696;2023-03-09T05:01:20;66.93;;;9.17;;
22967;SDS011;11650;48.106;-1.696;2023-03-09T05:03:46;57.27;;;8.70;;
22967;SDS011;11650;48.106;-1.696;2023-03-09T05:06:12;64.23;;;9.00;;
22967;SDS011;11650;48.106;-1.696;2023-03-09T05:08:37;77.23;;;9.93;;
22967;SDS011;11650;48.106;-1.696;2023-03-09T05:11:03;61.00;;;9.87;;
22967;SDS011;11650;48.106;-1.696;2023-03-09T05:13:29;60.17;;;9.77;;
22967;SDS011;11650;48.106;-1.696;2023-03-09T05:15:55;60.53;;;9.03;;
22967;SDS011;11650;48.106;-1.696;2023-03-09T05:18:20;64.80;;;9.77;;
22967;SDS011;11650;48.106;-1.696;2023-03-09T05:20:46;64.63;;;9.10;;
22967;SDS011;11650;48.106;-1.696;2023-03-09T05:23:12;59.03;;;8.30;;
22967;SDS011;11650;48.106;-1.696;2023-03-09T05:25:37;57.13;;;9.13;;
22967;SDS011;11650;48.106;-1.696;2023-03-09T05:28:03;64.60;;;8.90;;
22967;SDS011;11650;48.106;-1.696;2023-03-09T05:30:32;55.70;;;7.60;;
22967;SDS011;11650;48.106;-1.696;2023-03-09T05:32:58;68.97;;;8.33;;
22967;SDS011;11650;48.106;-1.696;2023-03-09T05:35:24;56.23;;;9.03;;
22967;SDS011;11650;48.106;-1.696;2023-03-09T05:37:49;55.70;;;8.83;;
22967;SDS011;11650;48.106;-1.696;2023-03-09T05:40:15;66.07;;;9.63;;
22967;SDS011;11650;48.106;-1.696;2023-03-09T05:42:43;57.60;;;9.30;;
22967;SDS011;11650;48.106;-1.696;2023-03-09T05:45:09;63.50;;;9.43;;
22967;SDS011;11650;48.106;-1.696;2023-03-09T05:47:35;52.53;;;7.43;;
22967;SDS011;11650;48.106;-1.696;2023-03-09T05:50:04;61.13;;;8.23;;
22967;SDS011;11650;48.106;-1.696;2023-03-09T05:52:30;62.93;;;8.17;;
22967;SDS011;11650;48.106;-1.696;2023-03-09T05:54:55;57.07;;;9.17;;
22967;SDS011;11650;48.106;-1.696;2023-03-09T05:57:21;61.00;;;8.20;;
22967;SDS011;11650;48.106;-1.696;2023-03-09T05:59:47;52.27;;;8.03;;
22967;SDS011;11650;48.106;-1.696;2023-03-09T06:02:13;57.53;;;8.17;;
22967;SDS011;11650;48.106;-1.696;2023-03-09T06:04:38;56.37;;;9.00;;
22967;SDS011;11650;48.106;-1.696;2023-03-09T06:07:04;64.57;;;8.63;;
22967;SDS011;11650;48.106;-1.696;2023-03-09T06:09:29;52.37;;;8.57;;
22967;SDS011;11650;48.106;-1.696;2023-03-09T06:11:55;55.93;;;8.87;;
22967;SDS011;11650;48.106;-1.696;2023-03-09T06:14:21;58.30;;;8.50;;
22967;SDS011;11650;48.106;-1.696;2023-03-09T06:16:46;62.33;;;9.53;;
22967;SDS011;11650;48.106;-1.696;2023-03-09T06:19:12;72.80;;;9.97;;
22967;SDS011;11650;48.106;-1.696;2023-03-09T06:21:38;66.63;;;9.37;;
22967;SDS011;11650;48.106;-1.696;2023-03-09T06:24:04;56.87;;;8.87;;
22967;SDS011;11650;48.106;-1.696;2023-03-09T06:26:29;65.73;;;9.47;;
22967;SDS011;11650;48.106;-1.696;2023-03-09T06:28:55;67.37;;;9.37;;
22967;SDS011;11650;48.106;-1.696;2023-03-09T06:31:21;61.73;;;9.13;;
22967;SDS011;11650;48.106;-1.696;2023-03-09T06:33:46;57.07;;;7.90;;
22967;SDS011;11650;48.106;-1.696;2023-03-09T06:36:13;58.90;;;9.03;;
22967;SDS011;11650;48.106;-1.696;2023-03-09T06:38:40;54.10;;;7.03;;
22967;SDS011;11650;48.106;-1.696;2023-03-09T06:41:06;60.47;;;9.07;;
22967;SDS011;11650;48.106;-1.696;2023-03-09T06:43:32;51.03;;;7.10;;
22967;SDS011;11650;48.106;-1.696;2023-03-09T06:45:57;57.37;;;7.67;;
22967;SDS011;11650;48.106;-1.696;2023-03-09T06:48:23;65.23;;;8.57;;
22967;SDS011;11650;48.106;-1.696;2023-03-09T06:50:49;76.23;;;9.37;;
22967;SDS011;11650;48.106;-1.696;2023-03-09T06:53:15;61.97;;;9.30;;
22967;SDS011;11650;48.106;-1.696;2023-03-09T06:55:41;48.97;;;7.03;;
22967;SDS011;11650;48.106;-1.696;2023-03-09T06:58:07;62.73;;;8.97;;
22967;SDS011;11650;48.106;-1.696;2023-03-09T07:00:33;65.43;;;9.27;;
22967;SDS011;11650;48.106;-1.696;2023-03-09T07:03:05;68.37;;;9.87;;
22967;SDS011;11650;48.106;-1.696;2023-03-09T07:05:34;64.77;;;8.77;;
22967;SDS011;11650;48.106;-1.696;2023-03-09T07:07:59;73.73;;;9.93;;
22967;SDS011;11650;48.106;-1.696;2023-03-09T07:10:25;72.60;;;10.03;;
22967;SDS011;11650;48.106;-1.696;2023-03-09T07:12:51;77.30;;;8.87;;
22967;SDS011;11650;48.106;-1.696;2023-03-09T07:15:16;66.23;;;9.60;;
22967;SDS011;11650;48.106;-1.696;2023-03-09T07:17:42;64.83;;;10.50;;
22967;SDS011;11650;48.106;-1.696;2023-03-09T07:20:08;72.10;;;8.60;;
22967;SDS011;11650;48.106;-1.696;2023-03-09T07:22:35;71.93;;;8.70;;
22967;SDS011;11650;48.106;-1.696;2023-03-09T07:25:01;67.10;;;9.83;;
22967;SDS011;11650;48.106;-1.696;2023-03-09T07:27:26;63.90;;;9.37;;
22967;SDS011;11650;48.106;-1.696;2023-03-09T07:29:52;81.87;;;10.30;;
22967;SDS011;11650;48.106;-1.696;2023-03-09T07:32:18;76.70;;;9.80;;
22967;SDS011;11650;48.106;-1.696;2023-03-09T07:34:43;73.87;;;10.77;;
22967;SDS011;11650;48.106;-1.696;2023-03-09T07:37:09;64.90;;;9.80;;
22967;SDS011;11650;48.106;-1.696;2023-03-09T07:39:35;75.93;;;10.33;;
22967;SDS011;11650;48.106;-1.696;2023-03-09T07:42:01;69.80;;;9.10;;
22967;SDS011;11650;48.106;-1.696;2023-03-09T07:44:27;70.97;;;9.70;;
22967;SDS011;11650;48.106;-1.696;2023-03-09T07:46:53;68.10;;;9.47;;
22967;SDS011;11650;48.106;-1.696;2023-03-09T07:49:19;54.03;;;9.07;;
22967;SDS011;11650;48.106;-1.696;2023-03-09T07:51:45;60.57;;;8.80;;
22967;SDS011;11650;48.106;-1.696;2023-03-09T07:54:11;73.63;;;10.33;;
22967;SDS011;11650;48.106;-1.696;2023-03-09T07:56:36;70.50;;;9.43;;
22967;SDS011;11650;48.106;-1.696;2023-03-09T07:59:02;71.70;;;10.10;;
22967;SDS011;11650;48.106;-1.696;2023-03-09T08:01:29;61.87;;;8.97;;
22967;SDS011;11650;48.106;-1.696;2023-03-09T08:03:55;71.07;;;9.90;;
22967;SDS011;11650;48.106;-1.696;2023-03-09T08:06:20;65.37;;;8.73;;
22967;SDS011;11650;48.106;-1.696;2023-03-09T08:08:46;62.40;;;8.73;;
22967;SDS011;11650;48.106;-1.696;2023-03-09T08:11:12;64.03;;;8.57;;
22967;SDS011;11650;48.106;-1.696;2023-03-09T08:13:38;52.67;;;8.47;;
22967;SDS011;11650;48.106;-1.696;2023-03-09T08:16:05;67.23;;;9.40;;
22967;SDS011;11650;48.106;-1.696;2023-03-09T08:18:32;66.93;;;10.23;;
22967;SDS011;11650;48.106;-1.696;2023-03-09T08:21:05;66.97;;;10.67;;
22967;SDS011;11650;48.106;-1.696;2023-03-09T08:23:33;67.47;;;9.97;;
22967;SDS011;11650;48.106;-1.696;2023-03-09T08:26:02;70.10;;;9.53;;
22967;SDS011;11650;48.106;-1.696;2023-03-09T08:28:28;61.97;;;9.37;;
22967;SDS011;11650;48.106;-1.696;2023-03-09T08:30:55;63.10;;;9.67;;
22967;SDS011;11650;48.106;-1.696;2023-03-09T08:33:20;54.93;;;9.17;;
22967;SDS011;11650;48.106;-1.696;2023-03-09T08:35:46;62.80;;;8.97;;
22967;SDS011;11650;48.106;-1.696;2023-03-09T08:38:12;73.57;;;10.47;;
22967;SDS011;11650;48.106;-1.696;2023-03-09T08:40:37;62.23;;;8.97;;
22967;SDS011;11650;48.106;-1.696;2023-03-09T08:43:03;60.87;;;8.97;;
22967;SDS011;11650;48.106;-1.696;2023-03-09T08:45:30;82.87;;;10.17;;
22967;SDS011;11650;48.106;-1.696;2023-03-09T08:47:55;80.23;;;11.33;;
22967;SDS011;11650;48.106;-1.696;2023-03-09T08:50:21;55.63;;;9.27;;
22967;SDS011;11650;48.106;-1.696;2023-03-09T08:52:47;64.00;;;9.50;;
22967;SDS011;11650;48.106;-1.696;2023-03-09T08:55:12;57.23;;;9.20;;
22967;SDS011;11650;48.106;-1.696;2023-03-09T08:57:39;67.33;;;9.93;;
22967;SDS011;11650;48.106;-1.696;2023-03-09T09:00:05;65.57;;;9.30;;
22967;SDS011;11650;48.106;-1.696;2023-03-09T09:02:33;55.73;;;7.77;;
22967;SDS011;11650;48.106;-1.696;2023-03-09T09:04:59;67.23;;;10.00;;
22967;SDS011;11650;48.106;-1.696;2023-03-09T09:07:25;47.87;;;7.50;;
22967;SDS011;11650;48.106;-1.696;2023-03-09T09:09:50;53.43;;;8.50;;
22967;SDS011;11650;48.106;-1.696;2023-03-09T09:12:16;53.97;;;8.83;;
22967;SDS011;11650;48.106;-1.696;2023-03-09T09:14:42;59.30;;;9.17;;
22967;SDS011;11650;48.106;-1.696;2023-03-09T09:17:07;55.83;;;8.57;;
22967;SDS011;11650;48.106;-1.696;2023-03-09T09:19:40;51.77;;;8.73;;
22967;SDS011;11650;48.106;-1.696;2023-03-09T09:22:06;54.40;;;8.33;;
22967;SDS011;11650;48.106;-1.696;2023-03-09T09:24:34;49.13;;;8.07;;
22967;SDS011;11650;48.106;-1.696;2023-03-09T09:27:04;63.50;;;9.27;;
22967;SDS011;11650;48.106;-1.696;2023-03-09T09:29:31;63.70;;;9.37;;
22967;SDS011;11650;48.106;-1.696;2023-03-09T09:31:58;47.83;;;8.37;;
22967;SDS011;11650;48.106;-1.696;2023-03-09T09:34:24;57.43;;;8.93;;
22967;SDS011;11650;48.106;-1.696;2023-03-09T09:36:50;58.57;;;9.67;;
22967;SDS011;11650;48.106;-1.696;2023-03-09T09:39:15;65.10;;;12.33;;
22967;SDS011;11650;48.106;-1.696;2023-03-09T09:41:43;57.50;;;10.73;;
22967;SDS011;11650;48.106;-1.696;2023-03-09T09:44:14;57.60;;;9.13;;
22967;SDS011;11650;48.106;-1.696;2023-03-09T09:46:44;59.90;;;9.83;;
22967;SDS011;11650;48.106;-1.696;2023-03-09T09:49:13;59.80;;;10.20;;
22967;SDS011;11650;48.106;-1.696;2023-03-09T09:51:50;63.03;;;10.53;;
22967;SDS011;11650;48.106;-1.696;2023-03-09T09:57:32;52.50;;;10.97;;
22967;SDS011;11650;48.106;-1.696;2023-03-09T10:10:50;58.73;;;9.07;;
22967;SDS011;11650;48.106;-1.696;2023-03-09T10:13:26;69.27;;;11.37;;
22967;SDS011;11650;48.106;-1.696;2023-03-09T10:15:58;58.20;;;9.97;;
22967;SDS011;11650;48.106;-1.696;2023-03-09T10:18:30;58.80;;;8.83;;
22967;SDS011;11650;48.106;-1.696;2023-03-09T10:21:02;67.23;;;10.43;;
22967;SDS011;11650;48.106;-1.696;2023-03-09T10:23:32;61.63;;;9.77;;
22967;SDS011;11650;48.106;-1.696;2023-03-09T10:28:27;52.93;;;7.10;;
22967;SDS011;11650;48.106;-1.696;2023-03-09T10:31:09;33.30;;;4.67;;
22967;SDS011;11650;48.106;-1.696;2023-03-09T10:33:45;34.07;;;5.47;;
22967;SDS011;11650;48.106;-1.696;2023-03-09T10:36:29;36.50;;;5.97;;
22967;SDS011;11650;48.106;-1.696;2023-03-09T10:38:58;34.27;;;6.10;;
22967;SDS011;11650;48.106;-1.696;2023-03-09T10:41:30;32.60;;;5.67;;
22967;SDS011;11650;48.106;-1.696;2023-03-09T10:43:56;29.07;;;5.97;;
22967;SDS011;11650;48.106;-1.696;2023-03-09T10:46:24;29.67;;;5.67;;
22967;SDS011;11650;48.106;-1.696;2023-03-09T10:49:12;38.07;;;6.00;;
22967;SDS011;11650;48.106;-1.696;2023-03-09T10:51:38;26.03;;;4.27;;
22967;SDS011;11650;48.106;-1.696;2023-03-09T10:56:59;33.63;;;5.00;;
22967;SDS011;11650;48.106;-1.696;2023-03-09T10:59:26;27.80;;;4.77;;
22967;SDS011;11650;48.106;-1.696;2023-03-09T11:01:54;28.33;;;5.03;;
22967;SDS011;11650;48.106;-1.696;2023-03-09T11:06:57;25.30;;;3.60;;
22967;SDS011;11650;48.106;-1.696;2023-03-09T11:09:32;28.57;;;5.00;;
22967;SDS011;11650;48.106;-1.696;2023-03-09T11:12:09;27.87;;;4.70;;
22967;SDS011;11650;48.106;-1.696;2023-03-09T11:14:52;41.70;;;6.80;;
22967;SDS011;11650;48.106;-1.696;2023-03-09T11:20:09;39.07;;;6.73;;
22967;SDS011;11650;48.106;-1.696;2023-03-09T11:22:40;40.93;;;7.07;;
22967;SDS011;11650;48.106;-1.696;2023-03-09T11:25:12;43.13;;;6.93;;
22967;SDS011;11650;48.106;-1.696;2023-03-09T11:27:42;38.93;;;6.97;;
22967;SDS011;11650;48.106;-1.696;2023-03-09T11:30:17;48.40;;;7.50;;
22967;SDS011;11650;48.106;-1.696;2023-03-09T11:32:44;41.57;;;6.57;;
22967;SDS011;11650;48.106;-1.696;2023-03-09T11:35:14;43.17;;;7.23;;
22967;SDS011;11650;48.106;-1.696;2023-03-09T11:37:42;43.93;;;7.03;;
22967;SDS011;11650;48.106;-1.696;2023-03-09T11:40:19;46.47;;;7.60;;
22967;SDS011;11650;48.106;-1.696;2023-03-09T11:43:00;41.90;;;5.90;;
22967;SDS011;11650;48.106;-1.696;2023-03-09T11:45:40;44.77;;;7.40;;
22967;SDS011;11650;48.106;-1.696;2023-03-09T11:50:42;43.53;;;7.53;;
22967;SDS011;11650;48.106;-1.696;2023-03-09T11:53:39;50.13;;;7.70;;
22967;SDS011;11650;48.106;-1.696;2023-03-09T12:01:52;41.77;;;6.67;;
22967;SDS011;11650;48.106;-1.696;2023-03-09T12:04:39;27.83;;;4.70;;
22967;SDS011;11650;48.106;-1.696;2023-03-09T12:07:38;43.63;;;8.17;;
22967;SDS011;11650;48.106;-1.696;2023-03-09T12:12:50;41.37;;;7.10;;
22967;SDS011;11650;48.106;-1.696;2023-03-09T12:15:41;46.27;;;7.50;;
22967;SDS011;11650;48.106;-1.696;2023-03-09T12:18:20;40.47;;;6.67;;
22967;SDS011;11650;48.106;-1.696;2023-03-09T12:20:49;43.67;;;7.03;;
22967;SDS011;11650;48.106;-1.696;2023-03-09T12:28:30;47.27;;;6.67;;
22967;SDS011;11650;48.106;-1.696;2023-03-09T12:30:56;41.73;;;7.37;;
22967;SDS011;11650;48.106;-1.696;2023-03-09T12:36:29;48.57;;;7.70;;
22967;SDS011;11650;48.106;-1.696;2023-03-09T12:47:33;42.03;;;7.70;;
22967;SDS011;11650;48.106;-1.696;2023-03-09T12:50:02;41.97;;;6.50;;
22967;SDS011;11650;48.106;-1.696;2023-03-09T13:06:30;35.63;;;5.90;;
22967;SDS011;11650;48.106;-1.696;2023-03-09T13:13:56;41.10;;;6.87;;
22967;SDS011;11650;48.106;-1.696;2023-03-09T13:24:13;37.63;;;6.13;;
22967;SDS011;11650;48.106;-1.696;2023-03-09T13:26:42;27.57;;;5.13;;
22967;SDS011;11650;48.106;-1.696;2023-03-09T13:29:14;27.70;;;5.50;;
22967;SDS011;11650;48.106;-1.696;2023-03-09T13:31:46;31.70;;;4.53;;
22967;SDS011;11650;48.106;-1.696;2023-03-09T13:34:20;26.23;;;5.23;;
22967;SDS011;11650;48.106;-1.696;2023-03-09T13:36:53;29.03;;;5.43;;
22967;SDS011;11650;48.106;-1.696;2023-03-09T13:39:23;20.40;;;4.30;;
22967;SDS011;11650;48.106;-1.696;2023-03-09T13:41:52;21.07;;;3.93;;
22967;SDS011;11650;48.106;-1.696;2023-03-09T13:44:20;15.13;;;3.57;;
22967;SDS011;11650;48.106;-1.696;2023-03-09T13:46:49;23.50;;;4.00;;
22967;SDS011;11650;48.106;-1.696;2023-03-09T13:51:55;18.47;;;3.93;;
22967;SDS011;11650;48.106;-1.696;2023-03-09T13:54:33;17.53;;;3.50;;
22967;SDS011;11650;48.106;-1.696;2023-03-09T13:57:04;18.67;;;3.60;;
22967;SDS011;11650;48.106;-1.696;2023-03-09T13:59:57;22.50;;;3.50;;
22967;SDS011;11650;48.106;-1.696;2023-03-09T14:02:39;15.07;;;3.07;;
22967;SDS011;11650;48.106;-1.696;2023-03-09T14:05:06;9.00;;;1.77;;
22967;SDS011;11650;48.106;-1.696;2023-03-09T14:07:54;19.80;;;3.40;;
22967;SDS011;11650;48.106;-1.696;2023-03-09T14:10:28;15.47;;;3.17;;
22967;SDS011;11650;48.106;-1.696;2023-03-09T14:15:24;14.27;;;2.83;;
22967;SDS011;11650;48.106;-1.696;2023-03-09T14:17:51;13.93;;;2.90;;
22967;SDS011;11650;48.106;-1.696;2023-03-09T14:22:57;20.73;;;3.33;;
22967;SDS011;11650;48.106;-1.696;2023-03-09T14:25:38;14.57;;;3.57;;
22967;SDS011;11650;48.106;-1.696;2023-03-09T14:28:22;18.30;;;3.43;;
22967;SDS011;11650;48.106;-1.696;2023-03-09T14:30:53;15.13;;;2.80;;
22967;SDS011;11650;48.106;-1.696;2023-03-09T14:35:51;23.93;;;4.47;;
22967;SDS011;11650;48.106;-1.696;2023-03-09T14:41:44;15.90;;;3.60;;
22967;SDS011;11650;48.106;-1.696;2023-03-09T14:44:27;9.00;;;2.33;;
22967;SDS011;11650;48.106;-1.696;2023-03-09T14:46:58;14.80;;;2.73;;
22967;SDS011;11650;48.106;-1.696;2023-03-09T14:49:23;17.27;;;2.87;;
22967;SDS011;11650;48.106;-1.696;2023-03-09T14:51:49;13.67;;;3.20;;
22967;SDS011;11650;48.106;-1.696;2023-03-09T14:54:15;11.53;;;1.90;;
22967;SDS011;11650;48.106;-1.696;2023-03-09T14:56:44;19.20;;;2.87;;
22967;SDS011;11650;48.106;-1.696;2023-03-09T15:01:41;16.60;;;3.37;;
22967;SDS011;11650;48.106;-1.696;2023-03-09T15:04:14;15.47;;;2.07;;
22967;SDS011;11650;48.106;-1.696;2023-03-09T15:06:41;17.30;;;3.90;;
22967;SDS011;11650;48.106;-1.696;2023-03-09T15:09:08;19.20;;;3.33;;
22967;SDS011;11650;48.106;-1.696;2023-03-09T15:11:35;11.90;;;2.27;;
22967;SDS011;11650;48.106;-1.696;2023-03-09T15:14:02;16.27;;;2.77;;
22967;SDS011;11650;48.106;-1.696;2023-03-09T15:16:38;19.67;;;3.37;;
22967;SDS011;11650;48.106;-1.696;2023-03-09T15:19:04;9.50;;;2.37;;
22967;SDS011;11650;48.106;-1.696;2023-03-09T15:21:30;16.87;;;3.53;;
22967;SDS011;11650;48.106;-1.696;2023-03-09T15:23:55;20.70;;;3.30;;
22967;SDS011;11650;48.106;-1.696;2023-03-09T15:26:21;15.30;;;3.43;;
22967;SDS011;11650;48.106;-1.696;2023-03-09T15:28:47;21.37;;;3.97;;
22967;SDS011;11650;48.106;-1.696;2023-03-09T15:31:12;23.63;;;4.10;;
22967;SDS011;11650;48.106;-1.696;2023-03-09T15:33:38;25.83;;;4.10;;
22967;SDS011;11650;48.106;-1.696;2023-03-09T15:36:07;18.10;;;3.57;;
22967;SDS011;11650;48.106;-1.696;2023-03-09T15:38:33;28.73;;;4.10;;
22967;SDS011;11650;48.106;-1.696;2023-03-09T15:40:59;23.37;;;4.27;;
22967;SDS011;11650;48.106;-1.696;2023-03-09T15:43:25;27.63;;;4.07;;
22967;SDS011;11650;48.106;-1.696;2023-03-09T15:45:50;23.77;;;4.07;;
22967;SDS011;11650;48.106;-1.696;2023-03-09T15:48:16;22.37;;;4.40;;
22967;SDS011;11650;48.106;-1.696;2023-03-09T15:50:47;36.40;;;5.30;;
22967;SDS011;11650;48.106;-1.696;2023-03-09T15:53:16;21.43;;;4.10;;
22967;SDS011;11650;48.106;-1.696;2023-03-09T15:55:42;31.73;;;4.90;;
22967;SDS011;11650;48.106;-1.696;2023-03-09T15:58:08;28.20;;;5.33;;
22967;SDS011;11650;48.106;-1.696;2023-03-09T16:00:34;24.43;;;3.80;;
22967;SDS011;11650;48.106;-1.696;2023-03-09T16:03:01;36.90;;;5.77;;
22967;SDS011;11650;48.106;-1.696;2023-03-09T16:05:28;24.47;;;4.40;;
22967;SDS011;11650;48.106;-1.696;2023-03-09T16:07:53;28.40;;;4.97;;
22967;SDS011;11650;48.106;-1.696;2023-03-09T16:10:20;39.60;;;6.20;;
22967;SDS011;11650;48.106;-1.696;2023-03-09T16:12:46;33.47;;;5.43;;
22967;SDS011;11650;48.106;-1.696;2023-03-09T16:15:13;31.80;;;5.50;;
22967;SDS011;11650;48.106;-1.696;2023-03-09T16:17:39;29.20;;;4.47;;
22967;SDS011;11650;48.106;-1.696;2023-03-09T16:20:05;33.67;;;4.97;;